Time;durP1;ratioP1;P1;durP2;ratioP2;P2;SDS_P1;SDS_P2;PMS_P1;PMS_P2;Temp;Humidity;BMP_temperature;BMP_pressure;BME280_temperature;BME280_humidity;BME280_pressure;Samples;Min_cycle;Max_cycle;Signal;HPM_P1;HPM_P2
2023/06/09 00:01:53;;;;;;;6.67;5.33;;;17.70;1.00;;;;;;5075160;28;20179;-79
2023/06/09 00:04:20;;;;;;;7.20;5.37;;;17.70;1.00;;;;;;5075096;28;20159;-78
2023/06/09 00:06:46;;;;;;;8.83;5.80;;;17.70;1.00;;;;;;5061224;28;20209;-79
2023/06/09 00:09:13;;;;;;;7.23;5.40;;;17.60;1.00;;;;;;5054892;28;20657;-79
2023/06/09 00:11:38;;;;;;;9.20;5.50;;;17.60;1.00;;;;;;5053548;28;20690;-79
2023/06/09 00:14:04;;;;;;;6.20;5.60;;;17.60;1.00;;;;;;5053363;28;20301;-79
2023/06/09 00:16:29;;;;;;;7.90;5.43;;;17.60;1.00;;;;;;5056955;28;20171;-79
2023/06/09 00:18:57;;;;;;;7.23;5.83;;;17.60;1.00;;;;;;5056871;28;20174;-79
2023/06/09 00:21:25;;;;;;;6.47;5.67;;;17.50;1.00;;;;;;5054897;28;20262;-79
2023/06/09 00:23:52;;;;;;;6.70;5.33;;;17.50;1.00;;;;;;5054185;28;20655;-78
2023/06/09 00:26:17;;;;;;;7.20;5.20;;;17.50;1.00;;;;;;5055024;28;20180;-79
2023/06/09 00:28:43;;;;;;;7.50;5.23;;;17.40;1.00;;;;;;5054344;28;20525;-79
2023/06/09 00:31:09;;;;;;;7.97;5.73;;;17.40;1.00;;;;;;5052814;28;20606;-79
2023/06/09 00:33:35;;;;;;;7.37;5.47;;;17.40;1.00;;;;;;5054383;28;20199;-79
2023/06/09 00:36:00;;;;;;;7.53;5.60;;;17.30;1.00;;;;;;5052929;28;20183;-79
2023/06/09 00:38:26;;;;;;;7.43;5.63;;;17.30;1.00;;;;;;5054254;28;20190;-79
2023/06/09 00:40:52;;;;;;;5.80;5.20;;;17.20;1.00;;;;;;5053143;28;20246;-79
2023/06/09 00:43:18;;;;;;;6.80;5.27;;;17.10;1.00;;;;;;5053416;28;20257;-79
2023/06/09 00:45:44;;;;;;;10.40;5.70;;;17.10;1.00;;;;;;5053983;28;20665;-79
2023/06/09 00:48:10;;;;;;;6.17;5.60;;;17.10;1.00;;;;;;5056490;28;20203;-79
2023/06/09 00:50:36;;;;;;;7.67;5.70;;;17.00;1.00;;;;;;5058032;28;20225;-78
2023/06/09 00:53:03;;;;;;;6.17;5.57;;;16.90;1.00;;;;;;5056715;28;20203;-79
2023/06/09 00:55:30;;;;;;;6.50;5.57;;;16.90;9.80;;;;;;5057920;28;20175;-77
2023/06/09 00:57:56;;;;;;;7.77;6.10;;;16.90;12.60;;;;;;5056740;28;20763;-79
2023/06/09 01:00:29;;;;;;;7.17;6.23;;;16.80;14.50;;;;;;5058813;28;20175;-79
2023/06/09 01:03:02;;;;;;;5.80;5.20;;;16.80;20.30;;;;;;5057820;28;20295;-78
2023/06/09 01:05:33;;;;;;;7.07;6.13;;;16.80;9.50;;;;;;5057669;28;20174;-79
2023/06/09 01:08:25;;;;;;;7.97;5.73;;;16.80;7.50;;;;;;5058332;28;20256;-79
2023/06/09 01:11:20;;;;;;;7.33;5.87;;;16.70;20.70;;;;;;5056800;28;20263;-79
2023/06/09 01:13:53;;;;;;;6.67;5.50;;;16.70;24.80;;;;;;5050237;28;20215;-79
2023/06/09 01:16:30;;;;;;;6.90;5.97;;;16.60;22.60;;;;;;5056116;28;20182;-79
2023/06/09 01:18:59;;;;;;;7.17;6.30;;;16.50;20.90;;;;;;5056348;28;20545;-79
2023/06/09 01:21:45;;;;;;;7.90;5.83;;;16.50;28.20;;;;;;5057638;28;20167;-78
2023/06/09 01:24:48;;;;;;;7.80;5.63;;;16.50;18.10;;;;;;5056464;28;20317;-77
2023/06/09 01:27:18;;;;;;;6.43;5.83;;;16.50;34.90;;;;;;5056019;28;20572;-79
2023/06/09 01:29:44;;;;;;;6.17;5.57;;;16.50;39.40;;;;;;5055558;28;20257;-79
2023/06/09 01:32:14;;;;;;;7.10;5.80;;;16.50;28.00;;;;;;5057222;28;20587;-79
2023/06/09 01:34:41;;;;;;;6.20;5.53;;;16.50;21.90;;;;;;5055582;28;20199;-79
2023/06/09 01:37:07;;;;;;;6.97;5.63;;;16.40;42.50;;;;;;5055797;28;20178;-79
2023/06/09 01:39:33;;;;;;;6.93;6.17;;;16.40;54.50;;;;;;5056071;28;20183;-79
2023/06/09 01:41:58;;;;;;;6.47;5.70;;;16.40;47.90;;;;;;5056707;28;20582;-79
2023/06/09 01:48:24;;;;;;;8.27;5.60;;;16.20;72.90;;;;;;5057028;28;20611;-79
2023/06/09 01:50:52;;;;;;;6.37;5.77;;;16.10;82.90;;;;;;5056545;28;20563;-79
2023/06/09 01:53:25;;;;;;;6.30;5.70;;;16.10;99.90;;;;;;5055184;28;20282;-79
2023/06/09 01:55:56;;;;;;;9.30;6.50;;;16.20;99.90;;;;;;5054168;28;20184;-79
2023/06/09 01:58:44;;;;;;;7.47;5.90;;;16.00;99.90;;;;;;5056657;28;20147;-79
2023/06/09 02:01:13;;;;;;;7.83;6.43;;;16.00;99.90;;;;;;5055124;28;20716;-78
2023/06/09 02:03:40;;;;;;;7.27;6.50;;;16.00;99.90;;;;;;5056779;28;20667;-79
2023/06/09 02:06:07;;;;;;;7.73;6.43;;;15.90;99.90;;;;;;5055062;28;20625;-79
2023/06/09 02:08:33;;;;;;;6.97;6.30;;;15.90;99.90;;;;;;5056886;28;20191;-79
2023/06/09 02:10:59;;;;;;;8.30;6.83;;;15.90;99.90;;;;;;5056724;28;20608;-79
2023/06/09 02:13:24;;;;;;;7.03;6.20;;;15.80;99.90;;;;;;5056362;28;20225;-78
2023/06/09 02:15:50;;;;;;;7.77;5.83;;;15.80;99.90;;;;;;5056254;28;20718;-78
2023/06/09 02:18:17;;;;;;;8.57;6.47;;;15.80;99.90;;;;;;5056597;28;20677;-79
2023/06/09 02:20:43;;;;;;;7.47;6.57;;;15.80;99.90;;;;;;5054758;28;20172;-79
2023/06/09 02:23:10;;;;;;;8.13;6.97;;;15.70;99.90;;;;;;5056326;28;20737;-79
2023/06/09 02:25:36;;;;;;;9.63;6.80;;;15.70;99.90;;;;;;5055028;28;20179;-79
2023/06/09 02:28:05;;;;;;;10.30;6.63;;;15.70;99.90;;;;;;5055917;28;20175;-78
2023/06/09 02:30:35;;;;;;;7.47;6.37;;;15.60;99.90;;;;;;5054917;28;20293;-79
2023/06/09 02:33:01;;;;;;;7.70;6.53;;;15.60;99.90;;;;;;5054832;28;20244;-79
2023/06/09 02:35:28;;;;;;;7.67;6.90;;;15.50;99.90;;;;;;5055402;28;20175;-79
2023/06/09 02:37:53;;;;;;;6.93;6.23;;;15.50;99.90;;;;;;5054973;28;20181;-79
2023/06/09 02:40:20;;;;;;;9.90;6.97;;;15.50;99.90;;;;;;5054990;28;20211;-79
2023/06/09 02:42:46;;;;;;;7.77;6.63;;;15.50;99.90;;;;;;5054671;28;20192;-79
2023/06/09 02:45:12;;;;;;;10.00;6.73;;;15.50;99.90;;;;;;5056499;28;20702;-79
2023/06/09 02:47:38;;;;;;;7.20;6.50;;;15.40;99.90;;;;;;5057078;28;20175;-79
2023/06/09 02:50:05;;;;;;;11.70;7.23;;;15.40;99.90;;;;;;5057295;28;20194;-79
2023/06/09 02:52:31;;;;;;;8.27;6.80;;;15.40;99.90;;;;;;5054545;28;20239;-77
2023/06/09 02:54:57;;;;;;;9.37;6.87;;;15.40;99.90;;;;;;5054107;28;20204;-78
2023/06/09 02:57:23;;;;;;;7.40;6.60;;;15.30;99.90;;;;;;5053280;28;20176;-78
2023/06/09 02:59:49;;;;;;;7.10;6.30;;;15.30;99.90;;;;;;5053385;28;20282;-77
2023/06/09 03:02:15;;;;;;;7.53;6.77;;;15.30;99.90;;;;;;5053257;28;20299;-78
2023/06/09 03:04:42;;;;;;;7.87;6.50;;;15.30;99.90;;;;;;5053086;28;20183;-78
2023/06/09 03:07:09;;;;;;;7.77;6.60;;;15.30;99.90;;;;;;5053017;28;20176;-78
2023/06/09 03:09:35;;;;;;;9.30;7.03;;;15.30;99.90;;;;;;5053479;28;20183;-77
2023/06/09 03:12:01;;;;;;;7.93;6.27;;;15.20;99.90;;;;;;5052627;28;20179;-77
2023/06/09 03:14:27;;;;;;;7.90;6.57;;;15.20;99.90;;;;;;5052510;28;20530;-78
2023/06/09 03:16:54;;;;;;;8.27;6.60;;;15.20;99.90;;;;;;5052863;28;20194;-80
2023/06/09 03:19:20;;;;;;;8.60;6.83;;;15.10;99.90;;;;;;5053249;28;20587;-78
2023/06/09 03:21:46;;;;;;;7.70;7.00;;;15.20;99.90;;;;;;5052914;28;20171;-78
2023/06/09 03:24:12;;;;;;;10.93;7.37;;;15.10;99.90;;;;;;5052882;28;20199;-78
2023/06/09 03:26:37;;;;;;;10.13;6.97;;;15.10;99.90;;;;;;5052804;28;20179;-77
2023/06/09 03:29:03;;;;;;;10.53;7.30;;;15.10;99.90;;;;;;5053446;28;20261;-78
2023/06/09 03:31:29;;;;;;;7.53;6.57;;;15.10;99.90;;;;;;5053018;28;20660;-77
2023/06/09 03:33:56;;;;;;;7.20;6.53;;;15.10;99.90;;;;;;5053522;28;20607;-78
2023/06/09 03:36:22;;;;;;;6.83;6.13;;;15.10;99.90;;;;;;5059515;28;20172;-77
2023/06/09 03:38:48;;;;;;;8.47;6.77;;;15.00;99.90;;;;;;5065795;28;20182;-77
2023/06/09 03:41:14;;;;;;;8.90;6.60;;;15.00;99.90;;;;;;5065413;28;20270;-77
2023/06/09 03:43:39;;;;;;;9.13;7.80;;;15.00;99.90;;;;;;5052611;28;20207;-78
2023/06/09 03:46:05;;;;;;;9.30;7.77;;;15.00;99.90;;;;;;5052364;28;20312;-78
2023/06/09 03:48:30;;;;;;;9.13;8.03;;;15.00;99.90;;;;;;5052217;28;20179;-77
2023/06/09 03:50:56;;;;;;;7.90;7.10;;;15.00;99.90;;;;;;5052052;28;20198;-78
2023/06/09 03:53:23;;;;;;;7.60;6.83;;;15.00;99.90;;;;;;5064283;28;20220;-77
2023/06/09 03:55:48;;;;;;;8.10;7.30;;;15.00;99.90;;;;;;5065603;28;20586;-77
2023/06/09 03:58:14;;;;;;;9.90;7.27;;;15.00;99.90;;;;;;5064639;28;20172;-77
2023/06/09 04:00:40;;;;;;;10.30;7.10;;;15.00;99.90;;;;;;5064567;28;20180;-77
2023/06/09 04:03:07;;;;;;;8.57;7.37;;;15.00;99.90;;;;;;5063807;28;20214;-77
2023/06/09 04:05:33;;;;;;;7.97;7.17;;;15.00;99.90;;;;;;5061363;28;20184;-78
2023/06/09 04:07:58;;;;;;;11.27;7.60;;;15.00;99.90;;;;;;5052613;28;20552;-77
2023/06/09 04:10:24;;;;;;;12.10;8.10;;;15.00;99.90;;;;;;5053806;28;20647;-78
2023/06/09 04:12:49;;;;;;;10.10;7.90;;;15.00;99.90;;;;;;5051897;28;20214;-78
2023/06/09 04:15:16;;;;;;;9.77;8.10;;;15.00;99.90;;;;;;5052077;28;20183;-78
2023/06/09 04:17:42;;;;;;;8.77;7.43;;;15.00;99.90;;;;;;5052349;28;20186;-78
2023/06/09 04:20:08;;;;;;;8.47;7.37;;;15.00;99.90;;;;;;5052252;28;20206;-78
2023/06/09 04:22:34;;;;;;;10.53;7.87;;;15.00;99.90;;;;;;5051182;28;20636;-78
2023/06/09 04:25:01;;;;;;;11.53;7.40;;;15.00;99.90;;;;;;5053391;28;20667;-78
2023/06/09 04:27:27;;;;;;;8.40;7.43;;;15.00;99.90;;;;;;5053126;28;20168;-78
2023/06/09 04:29:53;;;;;;;8.63;7.73;;;15.00;99.90;;;;;;5053847;28;20250;-78
2023/06/09 04:32:19;;;;;;;10.03;8.33;;;15.00;99.90;;;;;;5053026;28;20219;-78
2023/06/09 04:34:48;;;;;;;9.17;7.80;;;15.00;99.90;;;;;;5053185;28;20574;-77
2023/06/09 04:37:14;;;;;;;10.43;7.90;;;15.00;99.90;;;;;;5052735;28;20250;-78
2023/06/09 04:39:45;;;;;;;9.80;8.00;;;15.00;99.90;;;;;;5051715;28;20273;-77
2023/06/09 04:42:11;;;;;;;8.90;7.70;;;15.10;99.90;;;;;;5051646;28;20172;-77
2023/06/09 04:44:39;;;;;;;11.70;8.03;;;15.10;99.90;;;;;;5054749;28;20187;-77
2023/06/09 04:47:05;;;;;;;9.17;8.07;;;15.10;99.90;;;;;;5053610;28;20206;-80
2023/06/09 04:49:31;;;;;;;9.23;7.93;;;15.10;99.90;;;;;;5054255;28;20198;-79
2023/06/09 04:51:57;;;;;;;10.97;8.23;;;15.10;99.90;;;;;;5056483;28;20532;-80
2023/06/09 04:54:25;;;;;;;9.93;7.87;;;15.10;99.90;;;;;;5055781;28;20221;-80
2023/06/09 04:56:52;;;;;;;11.00;8.20;;;15.20;99.90;;;;;;5055777;28;20179;-80
2023/06/09 04:59:20;;;;;;;10.03;8.30;;;15.20;99.90;;;;;;5055175;28;20202;-79
2023/06/09 05:01:46;;;;;;;9.27;8.33;;;15.30;99.90;;;;;;5054976;28;20172;-78
2023/06/09 05:04:13;;;;;;;10.43;7.87;;;15.30;99.90;;;;;;5056201;28;20270;-80
2023/06/09 05:06:38;;;;;;;13.63;8.10;;;15.30;99.90;;;;;;5056088;28;20640;-78
2023/06/09 05:09:08;;;;;;;9.70;8.23;;;15.40;99.90;;;;;;5056230;28;20176;-79
2023/06/09 05:11:34;;;;;;;10.17;8.33;;;15.40;99.90;;;;;;5053044;28;20229;-79
2023/06/09 05:14:00;;;;;;;9.13;8.23;;;15.50;99.90;;;;;;5052574;28;20196;-77
2023/06/09 05:16:27;;;;;;;12.37;7.93;;;15.60;99.90;;;;;;5052899;28;20266;-78
2023/06/09 05:18:53;;;;;;;9.97;8.50;;;15.60;99.90;;;;;;5054213;28;20576;-79
2023/06/09 05:21:18;;;;;;;11.77;9.70;;;15.70;99.90;;;;;;5053282;28;20274;-80
2023/06/09 05:23:44;;;;;;;11.63;10.43;;;15.80;99.90;;;;;;5052580;28;20200;-78
2023/06/09 05:26:10;;;;;;;14.77;9.90;;;15.80;99.90;;;;;;5054056;28;20197;-77
2023/06/09 05:28:36;;;;;;;14.70;9.43;;;15.90;99.90;;;;;;5054455;28;20176;-79
2023/06/09 05:31:02;;;;;;;11.97;10.23;;;15.90;99.90;;;;;;5052717;28;20179;-79
2023/06/09 05:33:28;;;;;;;13.80;9.97;;;16.00;99.90;;;;;;5053497;28;20203;-79
2023/06/09 05:35:53;;;;;;;14.97;11.27;;;16.10;99.90;;;;;;5058000;28;20262;-79
2023/06/09 05:38:19;;;;;;;10.67;9.07;;;16.20;99.90;;;;;;5057746;28;20246;-79
2023/06/09 05:40:45;;;;;;;13.07;9.60;;;16.30;99.90;;;;;;5055975;28;20178;-78
2023/06/09 05:43:11;;;;;;;10.30;8.63;;;16.40;99.90;;;;;;5056205;28;20282;-80
2023/06/09 05:45:37;;;;;;;16.03;10.10;;;16.40;99.90;;;;;;5055844;28;20630;-78
2023/06/09 05:48:03;;;;;;;13.50;10.13;;;16.50;99.90;;;;;;5057014;28;20176;-78
2023/06/09 05:50:28;;;;;;;13.90;10.40;;;16.60;99.90;;;;;;5056450;28;20191;-76
2023/06/09 05:52:54;;;;;;;13.43;9.37;;;16.70;99.90;;;;;;5055993;28;20694;-77
2023/06/09 05:55:20;;;;;;;12.37;8.90;;;16.80;99.90;;;;;;5055211;28;20175;-77
2023/06/09 05:57:45;;;;;;;12.77;9.57;;;16.80;99.90;;;;;;5054355;28;20248;-76
2023/06/09 06:00:11;;;;;;;12.07;10.27;;;17.00;99.90;;;;;;5053849;28;20167;-77
2023/06/09 06:02:39;;;;;;;11.07;9.27;;;17.00;99.90;;;;;;5055611;28;20206;-76
2023/06/09 06:05:06;;;;;;;10.67;9.50;;;17.10;99.90;;;;;;5055540;28;20175;-77
2023/06/09 06:07:35;;;;;;;9.80;8.80;;;17.10;99.90;;;;;;5055348;28;20172;-76
2023/06/09 06:10:01;;;;;;;15.03;9.90;;;17.20;99.90;;;;;;5058786;28;20168;-78
2023/06/09 06:12:26;;;;;;;13.53;7.83;;;17.30;99.90;;;;;;5063529;28;20199;-79
2023/06/09 06:14:52;;;;;;;14.83;9.73;;;17.40;99.90;;;;;;5067229;28;20569;-78
2023/06/09 06:17:17;;;;;;;10.70;8.70;;;17.50;99.90;;;;;;5065823;28;20262;-79
2023/06/09 06:19:43;;;;;;;11.30;7.93;;;17.50;99.90;;;;;;5067226;28;20172;-78
2023/06/09 06:22:08;;;;;;;12.30;8.33;;;17.60;99.90;;;;;;5065976;28;20520;-78
2023/06/09 06:24:34;;;;;;;12.00;8.90;;;17.70;99.90;;;;;;5063919;28;20267;-79
2023/06/09 06:27:01;;;;;;;13.20;8.40;;;17.80;99.90;;;;;;5065064;28;20592;-78
2023/06/09 06:29:27;;;;;;;8.60;7.43;;;17.80;99.90;;;;;;5059093;28;20175;-77
2023/06/09 06:31:52;;;;;;;9.83;7.67;;;17.80;99.90;;;;;;5060090;28;20232;-77
2023/06/09 06:34:18;;;;;;;9.57;8.17;;;17.80;99.90;;;;;;5058282;28;20643;-77
2023/06/09 06:36:43;;;;;;;10.37;7.93;;;17.90;99.90;;;;;;5059799;28;20229;-78
2023/06/09 06:39:09;;;;;;;8.00;7.20;;;18.00;99.90;;;;;;5057967;28;20583;-77
2023/06/09 06:41:34;;;;;;;10.00;7.20;;;18.10;84.00;;;;;;5059541;28;20533;-77
2023/06/09 06:44:00;;;;;;;7.83;7.03;;;18.20;40.90;;;;;;5057357;28;20207;-78
2023/06/09 06:46:25;;;;;;;8.03;7.13;;;18.20;17.70;;;;;;5057133;28;20191;-78
2023/06/09 06:48:51;;;;;;;7.50;6.73;;;18.30;30.80;;;;;;5059495;28;20187;-77
2023/06/09 06:51:17;;;;;;;9.67;7.17;;;18.50;12.40;;;;;;5058098;28;20680;-78
2023/06/09 06:53:42;;;;;;;8.93;6.93;;;18.50;1.00;;;;;;5059434;28;20191;-77
2023/06/09 06:56:08;;;;;;;6.73;6.10;;;18.60;1.00;;;;;;5062213;28;20168;-79
2023/06/09 06:58:33;;;;;;;10.57;6.57;;;18.70;1.00;;;;;;5058555;28;20182;-77
2023/06/09 07:01:00;;;;;;;8.20;6.30;;;18.70;1.00;;;;;;5061755;28;20644;-80
2023/06/09 07:03:26;;;;;;;8.43;6.40;;;18.80;1.00;;;;;;5061985;28;20261;-77
2023/06/09 07:05:53;;;;;;;10.27;6.07;;;18.90;1.00;;;;;;5060544;28;20506;-77
2023/06/09 07:08:18;;;;;;;9.80;5.57;;;19.00;1.00;;;;;;5060976;28;20200;-77
2023/06/09 07:10:44;;;;;;;6.93;6.20;;;19.00;1.00;;;;;;5060206;28;20649;-78
2023/06/09 07:13:09;;;;;;;13.87;6.87;;;19.10;1.00;;;;;;5064846;28;20199;-78
2023/06/09 07:15:38;;;;;;;8.13;5.30;;;19.10;1.00;;;;;;5070040;28;20190;-78
2023/06/09 07:18:05;;;;;;;7.87;5.83;;;19.20;1.00;;;;;;5077544;28;20164;-78
2023/06/09 07:20:30;;;;;;;8.43;5.90;;;19.30;1.00;;;;;;5070632;28;20167;-78
2023/06/09 07:22:56;;;;;;;6.97;6.00;;;19.30;1.00;;;;;;5065446;28;20286;-79
2023/06/09 07:25:21;;;;;;;6.70;6.00;;;19.50;1.00;;;;;;5067212;28;20172;-79
2023/06/09 07:27:47;;;;;;;6.47;5.63;;;19.50;1.00;;;;;;5064024;28;20207;-77
2023/06/09 07:30:13;;;;;;;8.63;6.00;;;19.50;1.00;;;;;;5061058;28;20180;-79
2023/06/09 07:32:41;;;;;;;7.37;5.40;;;19.60;1.00;;;;;;5064871;28;20209;-79
2023/06/09 07:35:12;;;;;;;9.83;6.00;;;19.70;1.00;;;;;;5066761;28;20568;-77
2023/06/09 07:37:39;;;;;;;6.00;5.20;;;19.80;1.00;;;;;;5066853;28;20152;-79
2023/06/09 07:40:09;;;;;;;9.83;6.43;;;19.90;1.00;;;;;;5064757;28;20240;-78
2023/06/09 07:42:35;;;;;;;7.17;5.37;;;20.00;1.00;;;;;;5067427;28;20253;-79
2023/06/09 07:45:01;;;;;;;7.97;5.80;;;20.10;1.00;;;;;;5066480;28;20183;-79
2023/06/09 07:47:27;;;;;;;7.90;5.50;;;20.20;1.00;;;;;;5063499;28;20190;-79
2023/06/09 07:49:52;;;;;;;6.27;5.67;;;20.20;1.00;;;;;;5062158;28;20589;-78
2023/06/09 07:52:18;;;;;;;7.53;5.40;;;20.20;1.00;;;;;;5062074;28;20199;-79
2023/06/09 07:54:43;;;;;;;6.00;5.03;;;20.40;1.00;;;;;;5064469;28;20286;-79
2023/06/09 07:57:09;;;;;;;8.30;6.13;;;20.40;1.00;;;;;;5064399;28;20176;-78
2023/06/09 07:59:34;;;;;;;5.97;5.03;;;20.50;1.00;;;;;;5060931;28;20168;-79
2023/06/09 08:02:01;;;;;;;7.43;5.70;;;20.60;1.00;;;;;;5064242;28;20175;-77
2023/06/09 08:04:28;;;;;;;7.80;5.60;;;20.80;1.00;;;;;;5063751;28;20183;-79
2023/06/09 08:06:54;;;;;;;10.37;5.67;;;20.90;1.00;;;;;;5057059;28;20176;-79
2023/06/09 08:09:19;;;;;;;6.00;5.40;;;20.90;1.00;;;;;;5061929;28;20188;-79
2023/06/09 08:11:45;;;;;;;7.37;5.43;;;20.90;1.00;;;;;;5062295;28;20172;-78
2023/06/09 08:14:10;;;;;;;6.13;5.40;;;21.10;1.00;;;;;;5059056;28;20211;-79
2023/06/09 08:16:37;;;;;;;6.80;5.13;;;21.20;1.00;;;;;;5062819;28;20258;-77
2023/06/09 08:19:03;;;;;;;6.50;5.17;;;21.30;1.00;;;;;;5057132;28;20198;-79
2023/06/09 08:21:28;;;;;;;7.27;4.60;;;21.40;1.00;;;;;;5062136;28;20167;-78
2023/06/09 08:23:54;;;;;;;11.13;5.03;;;21.60;99.90;;;;;;5063269;28;20199;-78
2023/06/09 08:26:20;;;;;;;5.80;4.83;;;21.70;99.90;;;;;;5070606;28;20243;-79
2023/06/09 08:28:45;;;;;;;9.33;5.37;;;21.80;99.90;;;;;;5063881;28;20293;-77
2023/06/09 08:31:11;;;;;;;8.53;5.43;;;21.80;99.90;;;;;;5059871;28;20206;-78
2023/06/09 08:33:36;;;;;;;5.80;4.87;;;22.00;99.90;;;;;;5061024;28;20211;-77
2023/06/09 08:36:03;;;;;;;7.73;5.23;;;22.00;1.00;;;;;;5060454;28;20183;-77
2023/06/09 08:38:33;;;;;;;9.13;5.60;;;22.10;99.90;;;;;;5062618;28;20622;-77
2023/06/09 08:41:08;;;;;;;6.30;5.23;;;22.30;99.90;;;;;;5063626;28;20217;-77
2023/06/09 08:43:35;;;;;;;6.70;5.37;;;22.40;99.90;;;;;;5060216;28;20237;-79
2023/06/09 08:46:03;;;;;;;6.13;5.10;;;22.60;99.90;;;;;;5061996;28;20172;-78
2023/06/09 08:48:30;;;;;;;5.90;4.60;;;22.70;99.90;;;;;;5061527;28;20195;-79
2023/06/09 08:50:57;;;;;;;6.50;5.13;;;22.80;99.90;;;;;;5065220;28;20191;-79
2023/06/09 08:53:24;;;;;;;6.30;4.53;;;23.00;99.90;;;;;;5067595;28;20680;-79
2023/06/09 08:55:51;;;;;;;6.47;4.47;;;23.20;99.90;;;;;;5067541;28;20172;-79
2023/06/09 08:58:18;;;;;;;7.53;4.70;;;23.20;99.90;;;;;;5066301;28;20175;-79
2023/06/09 09:00:44;;;;;;;5.47;4.80;;;23.30;99.90;;;;;;5068077;28;20182;-78
2023/06/09 09:03:09;;;;;;;7.20;4.50;;;23.30;99.90;;;;;;5065061;28;20199;-79
2023/06/09 09:05:35;;;;;;;8.43;4.63;;;23.50;99.90;;;;;;5065170;28;20171;-79
2023/06/09 09:08:00;;;;;;;6.50;4.30;;;23.50;99.90;;;;;;5067203;28;20199;-80
2023/06/09 09:10:27;;;;;;;4.73;4.30;;;23.50;99.90;;;;;;5070676;28;20164;-81
2023/06/09 09:12:58;;;;;;;5.30;4.57;;;23.60;99.90;;;;;;5071664;28;20179;-81
2023/06/09 09:15:27;;;;;;;6.20;4.73;;;23.70;99.90;;;;;;5070867;28;20156;-81
2023/06/09 09:17:53;;;;;;;5.37;4.50;;;23.80;83.10;;;;;;5069333;28;20206;-81
2023/06/09 09:20:19;;;;;;;4.30;3.90;;;23.70;99.90;;;;;;5067055;28;20179;-81
2023/06/09 09:22:45;;;;;;;4.03;3.53;;;23.80;15.00;;;;;;5070570;28;20215;-80
2023/06/09 09:25:20;;;;;;;5.17;4.40;;;23.80;12.60;;;;;;5071189;28;20167;-81
2023/06/09 09:28:06;;;;;;;6.73;4.00;;;23.80;24.30;;;;;;5071613;28;20179;-80
2023/06/09 09:30:45;;;;;;;5.87;3.87;;;23.80;99.90;;;;;;5070885;28;20241;-81
2023/06/09 09:33:23;;;;;;;4.20;3.80;;;24.00;1.00;;;;;;5068564;28;20234;-80
2023/06/09 09:35:54;;;;;;;3.33;3.03;;;24.10;1.00;;;;;;5067887;28;20194;-81
2023/06/09 09:38:25;;;;;;;3.17;2.87;;;24.20;1.00;;;;;;5068796;28;20589;-82
2023/06/09 09:40:52;;;;;;;3.77;2.93;;;24.30;1.00;;;;;;5070290;28;20164;-80
2023/06/09 09:43:19;;;;;;;3.23;2.87;;;24.40;1.00;;;;;;5071965;28;20218;-80
2023/06/09 09:45:52;;;;;;;8.43;3.37;;;24.50;1.00;;;;;;5071121;28;20176;-78
2023/06/09 09:48:21;;;;;;;4.20;2.80;;;24.50;1.00;;;;;;5069189;28;20182;-80
2023/06/09 09:50:48;;;;;;;5.03;3.17;;;24.50;1.00;;;;;;5066085;28;20204;-79
2023/06/09 09:53:15;;;;;;;4.60;3.00;;;24.70;99.90;;;;;;5068720;28;20648;-79
2023/06/09 09:55:45;;;;;;;4.60;3.17;;;24.80;99.90;;;;;;5067816;28;20229;-79
2023/06/09 09:58:12;;;;;;;3.60;2.70;;;24.80;99.90;;;;;;5067707;28;20175;-79
2023/06/09 10:00:43;;;;;;;4.00;3.20;;;24.90;13.20;;;;;;5069521;28;20175;-79
2023/06/09 10:03:17;;;;;;;3.20;2.90;;;24.90;1.00;;;;;;5069084;28;20192;-79
2023/06/09 10:05:47;;;;;;;4.75;2.92;;;25.00;1.00;;;;;;5067851;28;20198;-80
2023/06/09 10:08:22;;;;;;;6.20;2.72;;;25.10;1.00;;;;;;5068870;28;20596;-80
2023/06/09 10:10:49;;;;;;;3.30;2.67;;;25.10;1.00;;;;;;5068804;28;20156;-79
2023/06/09 10:13:15;;;;;;;4.10;2.97;;;25.20;99.90;;;;;;5067899;28;20207;-79
2023/06/09 10:15:43;;;;;;;6.10;3.03;;;25.20;1.00;;;;;;5069093;28;20505;-80
2023/06/09 10:18:10;;;;;;;3.55;2.80;;;25.40;1.00;;;;;;5069464;28;20163;-80
2023/06/09 10:20:36;;;;;;;4.40;3.40;;;25.50;1.00;;;;;;5066077;28;20179;-78
2023/06/09 10:23:04;;;;;;;2.70;2.50;;;25.50;99.90;;;;;;5066371;28;20199;-80
2023/06/09 10:25:30;;;;;;;6.63;3.22;;;25.60;1.00;;;;;;5067374;28;20176;-81
2023/06/09 10:27:56;;;;;;;3.00;2.53;;;25.70;99.90;;;;;;5067574;28;20214;-80
2023/06/09 10:30:22;;;;;;;4.70;2.60;;;25.70;99.90;;;;;;5067571;28;20566;-81
2023/06/09 10:32:53;;;;;;;7.75;2.90;;;25.80;99.90;;;;;;5066523;28;20215;-80
2023/06/09 10:35:25;;;;;;;6.53;2.70;;;25.80;1.00;;;;;;5067208;28;20338;-81
2023/06/09 10:37:50;;;;;;;3.78;2.83;;;25.90;1.00;;;;;;5068156;28;20539;-80
2023/06/09 10:40:42;;;;;;;2.78;2.47;;;25.90;99.90;;;;;;5068510;28;20203;-80
2023/06/09 10:43:31;;;;;;;5.38;2.75;;;26.00;99.90;;;;;;5069530;28;20246;-80
2023/06/09 10:45:57;;;;;;;3.08;2.50;;;26.10;99.90;;;;;;5070218;28;20167;-80
2023/06/09 10:48:48;;;;;;;4.75;2.60;;;26.20;1.00;;;;;;5070268;28;20191;-81
2023/06/09 10:51:26;;;;;;;3.30;2.60;;;26.30;99.90;;;;;;5073062;28;20254;-79
2023/06/09 10:54:10;;;;;;;2.78;2.58;;;26.30;99.90;;;;;;5077388;28;20274;-80
2023/06/09 10:56:37;;;;;;;6.85;3.10;;;26.40;1.00;;;;;;5075543;28;20247;-80
2023/06/09 10:59:03;;;;;;;3.30;2.85;;;26.50;99.90;;;;;;5064940;28;20172;-80
2023/06/09 11:01:29;;;;;;;3.75;2.70;;;26.60;1.00;;;;;;5061753;28;20250;-80
2023/06/09 11:03:55;;;;;;;4.10;2.67;;;26.70;99.90;;;;;;5064611;28;20195;-81
2023/06/09 11:06:20;;;;;;;3.20;2.70;;;26.70;99.90;;;;;;5066951;28;20265;-80
2023/06/09 11:09:09;;;;;;;4.10;2.97;;;26.80;1.00;;;;;;5065121;28;20527;-79
2023/06/09 11:11:49;;;;;;;3.95;2.97;;;26.80;1.00;;;;;;5066470;28;20186;-79
2023/06/09 11:14:51;;;;;;;3.45;3.15;;;26.90;1.00;;;;;;5065198;28;20268;-80
2023/06/09 11:17:19;;;;;;;3.55;3.10;;;27.00;32.70;;;;;;5064042;28;20201;-80
2023/06/09 11:19:45;;;;;;;4.00;3.10;;;27.00;1.00;;;;;;5061934;28;20278;-79
2023/06/09 11:22:12;;;;;;;6.10;3.30;;;27.00;99.90;;;;;;5063732;28;20294;-80
2023/06/09 11:24:46;;;;;;;3.95;3.28;;;27.20;99.90;;;;;;5066184;28;20176;-80
2023/06/09 11:27:22;;;;;;;5.28;2.90;;;27.20;99.90;;;;;;5063035;28;20167;-80
2023/06/09 11:30:07;;;;;;;3.13;2.83;;;27.20;83.20;;;;;;5065529;28;20178;-79
2023/06/09 11:33:06;;;;;;;3.42;2.65;;;27.30;99.90;;;;;;5065574;28;20202;-80
2023/06/09 11:35:32;;;;;;;2.85;2.50;;;27.40;90.10;;;;;;5050682;28;20217;-77
2023/06/09 11:38:11;;;;;;;2.92;2.72;;;27.40;1.00;;;;;;5064325;28;20194;-78
2023/06/09 11:40:40;;;;;;;4.60;3.00;;;27.50;1.00;;;;;;5063685;28;20217;-80
2023/06/09 11:43:07;;;;;;;3.10;2.80;;;27.60;1.00;;;;;;5060223;28;20195;-80
2023/06/09 11:45:34;;;;;;;3.63;3.00;;;27.70;1.00;;;;;;5064307;28;20172;-79
2023/06/09 11:48:00;;;;;;;3.88;2.72;;;27.80;50.70;;;;;;5064747;28;20168;-80
2023/06/09 11:50:39;;;;;;;4.53;2.47;;;27.90;30.40;;;;;;5063964;28;20216;-79
2023/06/09 11:53:07;;;;;;;3.33;2.90;;;27.80;99.90;;;;;;5061348;28;20573;-80
2023/06/09 11:55:33;;;;;;;3.30;2.92;;;27.80;1.00;;;;;;5061672;28;20172;-79
2023/06/09 11:57:59;;;;;;;3.20;2.67;;;27.80;99.90;;;;;;5064834;28;20180;-80
2023/06/09 12:00:27;;;;;;;5.78;3.05;;;27.80;99.90;;;;;;5063785;28;20176;-79
2023/06/09 12:02:53;;;;;;;2.90;2.50;;;28.00;1.00;;;;;;5065153;28;20274;-78
2023/06/09 12:05:21;;;;;;;3.10;2.80;;;28.20;99.90;;;;;;5063948;28;20226;-78
2023/06/09 12:07:49;;;;;;;3.40;2.78;;;28.30;1.00;;;;;;5064228;28;20172;-78
2023/06/09 12:10:23;;;;;;;3.13;2.83;;;28.30;1.00;;;;;;5063168;28;20647;-80
2023/06/09 12:12:54;;;;;;;3.63;2.75;;;28.30;99.90;;;;;;5063308;28;20749;-79
2023/06/09 12:15:21;;;;;;;6.38;3.10;;;28.40;1.00;;;;;;5060342;28;20203;-78
2023/06/09 12:17:49;;;;;;;3.70;2.88;;;28.40;1.00;;;;;;5061218;28;20179;-79
2023/06/09 12:20:20;;;;;;;4.05;2.67;;;28.50;99.90;;;;;;5058419;28;20176;-80
2023/06/09 12:22:46;;;;;;;4.32;2.67;;;28.70;99.90;;;;;;5061625;28;20695;-80
2023/06/09 12:25:29;;;;;;;5.22;2.70;;;28.80;99.90;;;;;;5062435;28;20184;-80
2023/06/09 12:27:57;;;;;;;3.08;2.60;;;28.90;99.90;;;;;;5064436;28;20696;-80
2023/06/09 12:30:50;;;;;;;3.10;2.80;;;28.90;1.00;;;;;;5061479;28;20179;-80
2023/06/09 12:33:18;;;;;;;2.88;2.55;;;29.00;1.00;;;;;;5064262;28;20188;-79
2023/06/09 12:35:45;;;;;;;3.55;2.53;;;29.10;1.00;;;;;;5064109;28;20233;-80
2023/06/09 12:38:15;;;;;;;4.65;3.03;;;29.20;1.00;;;;;;5063633;28;20171;-81
2023/06/09 12:40:47;;;;;;;5.40;2.95;;;29.40;99.90;;;;;;5063634;28;20167;-79
2023/06/09 12:43:15;;;;;;;6.93;2.80;;;29.40;76.50;;;;;;5065647;28;20203;-80
2023/06/09 12:45:42;;;;;;;4.78;2.67;;;29.40;1.00;;;;;;5070036;28;20175;-80
2023/06/09 12:48:08;;;;;;;4.72;2.88;;;29.40;1.00;;;;;;5067536;28;20242;-80
2023/06/09 12:50:34;;;;;;;5.28;3.47;;;29.40;1.00;;;;;;5068017;28;20219;-79
2023/06/09 12:53:00;;;;;;;3.35;2.88;;;29.30;1.00;;;;;;5061984;28;20187;-79
2023/06/09 12:55:26;;;;;;;3.63;3.08;;;29.20;19.00;;;;;;5061989;28;20686;-80
2023/06/09 12:57:51;;;;;;;3.17;2.88;;;29.10;99.90;;;;;;5060756;28;20217;-80